Airfield :
LOGIN :

Register | Disclaimer

   EN    FR    IT 

 










Legend :    VFR   Marginal VFR   IFR   Intensive IFR   Very Intensive IFR
Visi :
Ceiling :
>= 8 km
>= 3000ft
5 to 8 km
1000 to 3000 ft
1500m to 5 km
500 to 1000 ft
800 to 1500m
200 to 500 ft
< 800m
< 200 ft
Symbols :   Thunderstorms  Fog  Heavy snow  Heavy precipitations  Wind > 20 kt
SIGMETs :     Misc.  Thunderstorms  Icing  Turbulence  Mountain Waves  Volcanic Ashes






- Airport Elevation : 46 ft
- IATA code : SNN


EINN - Shannon

CURRENT METAR :
  • 102230Z 24018KT 8000 -SHRA FEW011 SCT018CB BKN035 06/03 Q1005 NOSIG

EXPIRED METARs :
  • 102200Z 25012KT 9999 FEW008 FEW018CB SCT036 06/03 Q1004 NOSIG
  • 102130Z 26016KT 9999 SCT018CB 06/03 Q1004 NOSIG
  • 102100Z 25015KT 9999 FEW018CB 07/03 Q1004 NOSIG
  • 102030Z 24013KT 9999 FEW018CB 07/03 Q1004 NOSIG
  • 102000Z 24012KT 9999 FEW018CB 06/03 Q1004 NOSIG

TAF TAF EINN
Valid from the 10 at 18:00 until the 11 at 18:00 UTC


101700Z 1018/1118 25015KT 9999 FEW015 BKN025
TEMPO 1018/1101 26020G30KT 5000 -SHRAGS SCT013 SCT018CB
TEMPO 1101/1114 4000 SHRAGS BKN013 SCT018CB
BECMG 1101/1103 22016KT
TEMPO 1101/1106 24020G32KT
BECMG 1106/1108 25015G26KT
PROB30
TEMPO 1107/1109 -SHRASN
BECMG 1109/1111 27015KT
TEMPO 1110/1115 28017G28KT



MET'MAP, your aeronautical weather chart ! - Copyright ORBIFLY December 2007 - Disclaimer

ORBIFLY MET'MAP TEAM :

Programming & Development : Alexandra Zaïnal
Concept & original design : Baudouin d'Aumeries
Assistance for programming : Marc-Olivier Méhu
Technical & hardware support : Manuel Goepfert

Contact : metmap@orbifly.com




SOURCES & CREDITS :

   NOAA